Time;durP1;ratioP1;P1;durP2;ratioP2;P2;SDS_P1;SDS_P2;PMS_P1;PMS_P2;Temp;Humidity;BMP_temperature;BMP_pressure;BME280_temperature;BME280_humidity;BME280_pressure;Samples;Min_cycle;Max_cycle;Signal;HPM_P1;HPM_P2
2024/01/14 00:05:25;;;;;;;13;6.6;;;;;;;-0.71;78.72;97811.666666667;;;;
2024/01/14 00:16:24;;;;;;;13;6.6;;;;;;;-0.72;78.67;97800;;;;
2024/01/14 00:27:24;;;;;;;13;6.6;;;;;;;-0.67;79.12;97791.666666667;;;;
2024/01/14 00:38:24;;;;;;;12.7;6.9;;;;;;;-0.6;78.97;97775;;;;
2024/01/14 00:49:24;;;;;;;12.7;6.9;;;;;;;-0.46;78.94;97770;;;;
2024/01/14 00:59:24;;;;;;;12.7;6.9;;;;;;;-0.42;79.27;97761.666666667;;;;
2024/01/14 01:10:24;;;;;;;12;5.7;;;;;;;-0.52;79.42;97746.666666667;;;;
2024/01/14 01:20:24;;;;;;;12;5.7;;;;;;;-0.43;78.83;97725;;;;
2024/01/14 01:31:24;;;;;;;8.8;4.4;;;;;;;-0.34;78.76;97710;;;;
2024/01/14 01:42:24;;;;;;;8.8;4.4;;;;;;;-0.33;78.95;97691.666666667;;;;
2024/01/14 01:52:24;;;;;;;8.8;4.4;;;;;;;-0.36;79.22;97686.666666667;;;;
2024/01/14 02:02:24;;;;;;;8.9;4.7;;;;;;;-0.3;79.38;97673.333333333;;;;
2024/01/14 02:13:24;;;;;;;8.9;4.7;;;;;;;-0.25;78.96;97668.333333333;;;;
2024/01/14 02:23:24;;;;;;;8.9;4.7;;;;;;;-0.13;78.75;97655;;;;
2024/01/14 02:33:24;;;;;;;7;4.1;;;;;;;-0.13;78.45;97635;;;;
2024/01/14 02:43:24;;;;;;;7;4.1;;;;;;;-0.05;78.46;97631.666666667;;;;
2024/01/14 02:53:24;;;;;;;7;4.1;;;;;;;-0.06;79.53;97606.666666667;;;;
2024/01/14 03:04:24;;;;;;;6.3;3.4;;;;;;;-0.05;80.01;97600;;;;
2024/01/14 03:15:24;;;;;;;6.3;3.4;;;;;;;-0.06;80.44;97583.333333333;;;;
2024/01/14 03:25:24;;;;;;;6.3;3.4;;;;;;;-0.01;78.89;97561.666666667;;;;
2024/01/14 03:35:24;;;;;;;5.3;3.4;;;;;;;-0.12;78.26;97560;;;;
2024/01/14 03:46:24;;;;;;;5.3;3.4;;;;;;;-0.03;77.93;97545;;;;
2024/01/14 03:57:24;;;;;;;5.3;3.4;;;;;;;0;77.49;97526.666666667;;;;
2024/01/14 04:08:24;;;;;;;6.6;3.5;;;;;;;0;77.27;97520;;;;
2024/01/14 04:18:24;;;;;;;6.6;3.5;;;;;;;0;77.46;97536.666666667;;;;
2024/01/14 04:29:24;;;;;;;8.3;4.1;;;;;;;-0.03;77.52;97528.333333333;;;;
2024/01/14 04:39:24;;;;;;;8.3;4.1;;;;;;;-0.03;77.34;97515;;;;
2024/01/14 04:49:24;;;;;;;8.3;4.1;;;;;;;0;77.66;97496.666666667;;;;
2024/01/14 05:00:25;;;;;;;9.1;4.3;;;;;;;-0.05;78.08;97496.666666667;;;;
2024/01/14 05:10:24;;;;;;;9.1;4.3;;;;;;;-0.23;83.61;97488.333333333;;;;
2024/01/14 05:20:24;;;;;;;9.1;4.3;;;;;;;-0.55;86.09;97491.666666667;;;;
2024/01/14 05:30:24;;;;;;;8.3;4.4;;;;;;;-0.5;86.17;97486.666666667;;;;
2024/01/14 05:41:24;;;;;;;8.3;4.4;;;;;;;-0.61;87.6;97488.333333333;;;;
2024/01/14 05:52:24;;;;;;;8.3;4.4;;;;;;;-0.64;88.25;97488.333333333;;;;
2024/01/14 06:03:24;;;;;;;9.6;5.9;;;;;;;-0.67;88.6;97503.333333333;;;;
2024/01/14 06:14:24;;;;;;;9.6;5.9;;;;;;;-0.66;88.69;97496.666666667;;;;
2024/01/14 06:24:24;;;;;;;9.6;5.9;;;;;;;-0.59;88.43;97480;;;;
2024/01/14 06:35:24;;;;;;;8.1;5.1;;;;;;;-0.72;88.43;97465;;;;
2024/01/14 06:45:24;;;;;;;8.1;5.1;;;;;;;-0.62;87.88;97470;;;;
2024/01/14 06:55:24;;;;;;;8.1;5.1;;;;;;;-0.58;88.09;97468.333333333;;;;
2024/01/14 07:06:24;;;;;;;10;5;;;;;;;-0.46;86.79;97465;;;;
2024/01/14 07:16:24;;;;;;;10;5;;;;;;;-0.43;85.9;97458.333333333;;;;
2024/01/14 07:26:24;;;;;;;10;5;;;;;;;-0.05;85.04;97461.666666667;;;;
2024/01/14 07:37:24;;;;;;;9.4;4.1;;;;;;;0.08;84.05;97453.333333333;;;;
2024/01/14 07:48:26;;;;;;;9.4;4.1;;;;;;;0.08;82.97;97453.333333333;;;;
2024/01/14 07:58:24;;;;;;;9.4;4.1;;;;;;;0.19;83.6;97441.666666667;;;;
2024/01/14 08:09:24;;;;;;;8.8;4.9;;;;;;;0.17;84.06;97445;;;;
2024/01/14 08:20:25;;;;;;;8.8;4.9;;;;;;;0.56;83.09;97443.333333333;;;;
2024/01/14 08:31:24;;;;;;;8.1;4.6;;;;;;;0.45;83.25;97448.333333333;;;;
2024/01/14 08:41:26;;;;;;;8.1;4.6;;;;;;;0.49;82.51;97458.333333333;;;;
2024/01/14 08:52:24;;;;;;;8.1;4.6;;;;;;;0.5;84.35;97466.666666667;;;;
2024/01/14 09:03:26;;;;;;;9.1;5.5;;;;;;;0.5;84.95;97466.666666667;;;;
2024/01/14 09:14:25;;;;;;;9.1;5.5;;;;;;;0.65;84.17;97468.333333333;;;;
2024/01/14 09:24:24;;;;;;;9.1;5.5;;;;;;;0.59;84.54;97475;;;;
2024/01/14 09:34:24;;;;;;;11.1;5.3;;;;;;;0.63;84.67;97461.666666667;;;;
2024/01/14 09:45:24;;;;;;;11.1;5.3;;;;;;;1;83.5;97456.666666667;;;;
2024/01/14 09:56:24;;;;;;;11.1;5.3;;;;;;;1.59;81.75;97445;;;;
2024/01/14 10:07:24;;;;;;;13.1;5.8;;;;;;;1.77;79.02;97443.333333333;;;;
2024/01/14 10:17:24;;;;;;;13.1;5.8;;;;;;;1.71;77.61;97443.333333333;;;;
2024/01/14 10:27:24;;;;;;;13.1;5.8;;;;;;;1.82;76.8;97441.666666667;;;;
2024/01/14 10:38:25;;;;;;;8.1;4.4;;;;;;;2.22;75.52;97441.666666667;;;;
2024/01/14 10:48:25;;;;;;;8.1;4.4;;;;;;;2.21;74.77;97440;;;;
2024/01/14 10:58:25;;;;;;;8.4;4.9;;;;;;;2.22;75.62;97430;;;;
2024/01/14 11:08:24;;;;;;;8.4;4.9;;;;;;;2.36;74.12;97423.333333333;;;;
2024/01/14 11:18:24;;;;;;;8.4;4.9;;;;;;;2.61;74.06;97420;;;;
2024/01/14 11:29:24;;;;;;;8.9;5.5;;;;;;;2.6;73.58;97418.333333333;;;;
2024/01/14 11:40:25;;;;;;;8.9;5.5;;;;;;;2.76;73.37;97416.666666667;;;;
2024/01/14 11:51:24;;;;;;;8.9;5.5;;;;;;;2.81;72.59;97406.666666667;;;;
2024/01/14 12:02:24;;;;;;;8.1;4.4;;;;;;;2.8;72.18;97406.666666667;;;;
2024/01/14 12:13:24;;;;;;;8.1;4.4;;;;;;;2.55;73.67;97393.333333333;;;;
2024/01/14 12:24:24;;;;;;;8.1;4.4;;;;;;;2.3;76.4;97393.333333333;;;;
2024/01/14 12:34:25;;;;;;;13.1;7.4;;;;;;;2.54;77.14;97396.666666667;;;;
2024/01/14 12:45:24;;;;;;;13.1;7.4;;;;;;;2.4;74.33;97401.666666667;;;;
2024/01/14 12:55:29;;;;;;;13.1;7.4;;;;;;;2.29;75.79;97405;;;;
2024/01/14 13:06:25;;;;;;;11.6;6.6;;;;;;;2.49;75.81;97411.666666667;;;;
2024/01/14 13:16:25;;;;;;;11.6;6.6;;;;;;;2.41;75.49;97406.666666667;;;;
2024/01/14 13:27:25;;;;;;;11.6;6.6;;;;;;;2.32;75.32;97400;;;;
2024/01/14 13:38:25;;;;;;;10.2;7.1;;;;;;;2.19;75.87;97400;;;;
2024/01/14 13:49:25;;;;;;;10.2;7.1;;;;;;;2.17;78.07;97411.666666667;;;;
2024/01/14 14:00:25;;;;;;;11.9;6.3;;;;;;;2.01;76.48;97405;;;;
2024/01/14 14:11:25;;;;;;;11.9;6.3;;;;;;;1.86;75.87;97401.666666667;;;;
2024/01/14 14:21:25;;;;;;;11.9;6.3;;;;;;;1.86;77.41;97393.333333333;;;;
2024/01/14 14:32:25;;;;;;;8.6;4.9;;;;;;;1.67;77.03;97385;;;;
2024/01/14 14:42:25;;;;;;;8.6;4.9;;;;;;;1.51;77.02;97395;;;;
2024/01/14 14:53:25;;;;;;;8.6;4.9;;;;;;;1.4;77.82;97401.666666667;;;;
2024/01/14 15:03:25;;;;;;;9.1;5.5;;;;;;;1.35;78.59;97395;;;;
2024/01/14 15:13:25;;;;;;;9.1;5.5;;;;;;;1.25;79.02;97403.333333333;;;;
2024/01/14 15:23:26;;;;;;;9.1;5.5;;;;;;;1.19;79.31;97400;;;;
2024/01/14 15:34:25;;;;;;;12.3;6;;;;;;;1.11;79.75;97395;;;;
2024/01/14 15:45:25;;;;;;;12.3;6;;;;;;;1.04;79.81;97386.666666667;;;;
2024/01/14 15:56:26;;;;;;;12.3;6;;;;;;;0.84;80.14;97381.666666667;;;;
2024/01/14 16:07:25;;;;;;;12.6;6.8;;;;;;;0.81;80.34;97373.333333333;;;;
2024/01/14 16:17:25;;;;;;;12.6;6.8;;;;;;;0.75;80.08;97361.666666667;;;;
2024/01/14 16:28:25;;;;;;;11.9;7;;;;;;;0.77;80.37;97351.666666667;;;;
2024/01/14 16:39:25;;;;;;;11.9;7;;;;;;;0.81;79.99;97345;;;;
2024/01/14 16:50:25;;;;;;;11.9;7;;;;;;;0.76;79.8;97340;;;;
2024/01/14 17:00:25;;;;;;;12.5;7.1;;;;;;;0.81;79.64;97330;;;;
2024/01/14 17:10:25;;;;;;;12.5;7.1;;;;;;;0.82;79.67;97323.333333333;;;;
2024/01/14 17:20:25;;;;;;;12.5;7.1;;;;;;;0.87;79.12;97315;;;;
2024/01/14 17:31:25;;;;;;;17;7.8;;;;;;;0.76;78.74;97305;;;;
2024/01/14 17:42:25;;;;;;;17;7.8;;;;;;;0.74;78.36;97286.666666667;;;;
2024/01/14 17:52:25;;;;;;;17;7.8;;;;;;;0.77;78.56;97291.666666667;;;;
2024/01/14 18:03:25;;;;;;;15;7.8;;;;;;;0.77;78.04;97285;;;;
2024/01/14 18:14:25;;;;;;;15;7.8;;;;;;;0.77;78.21;97280;;;;
2024/01/14 18:25:25;;;;;;;15;7.8;;;;;;;0.79;78.46;97271.666666667;;;;
2024/01/14 18:36:25;;;;;;;11.2;7;;;;;;;0.73;77.88;97260;;;;
2024/01/14 18:46:25;;;;;;;11.2;7;;;;;;;0.75;78.63;97258.333333333;;;;
2024/01/14 18:57:25;;;;;;;13.2;7.1;;;;;;;0.81;79.04;97250;;;;
2024/01/14 19:07:25;;;;;;;13.2;7.1;;;;;;;0.84;77.47;97246.666666667;;;;
2024/01/14 19:18:25;;;;;;;13.2;7.1;;;;;;;0.88;78.93;97241.666666667;;;;
2024/01/14 19:29:25;;;;;;;13.6;7.3;;;;;;;0.93;78.44;97241.666666667;;;;
2024/01/14 19:39:25;;;;;;;13.6;7.3;;;;;;;0.92;77.83;97241.666666667;;;;
2024/01/14 19:50:25;;;;;;;13.6;7.3;;;;;;;0.99;77.65;97226.666666667;;;;
2024/01/14 20:01:25;;;;;;;11.5;6;;;;;;;0.96;77.45;97213.333333333;;;;
2024/01/14 20:11:26;;;;;;;11.5;6;;;;;;;0.99;77.43;97203.333333333;;;;
2024/01/14 20:22:25;;;;;;;11.5;6;;;;;;;0.95;77.5;97195;;;;
2024/01/14 20:32:26;;;;;;;11.4;6.4;;;;;;;0.99;77.77;97181.666666667;;;;
2024/01/14 20:42:25;;;;;;;11.4;6.4;;;;;;;0.9;77.26;97181.666666667;;;;
2024/01/14 20:52:26;;;;;;;11.4;6.4;;;;;;;0.97;77.35;97170;;;;
2024/01/14 21:03:25;;;;;;;15.9;6.9;;;;;;;0.93;77.09;97166.666666667;;;;
2024/01/14 21:13:25;;;;;;;15.9;6.9;;;;;;;1.02;76.68;97150;;;;
2024/01/14 21:24:25;;;;;;;15.9;6.9;;;;;;;1;76.73;97148.333333333;;;;
2024/01/14 21:34:25;;;;;;;13.6;6.1;;;;;;;0.99;76.51;97138.333333333;;;;
2024/01/14 21:45:27;;;;;;;13.6;6.1;;;;;;;0.99;76.46;97123.333333333;;;;
2024/01/14 21:55:25;;;;;;;13.6;6.1;;;;;;;1.01;76.54;97118.333333333;;;;
2024/01/14 22:06:25;;;;;;;11.5;5.4;;;;;;;0.99;76.31;97113.333333333;;;;
2024/01/14 22:16:25;;;;;;;11.5;5.4;;;;;;;0.89;76.34;97093.333333333;;;;
2024/01/14 22:27:25;;;;;;;9.8;5;;;;;;;1.03;75.88;97071.666666667;;;;
2024/01/14 22:37:25;;;;;;;9.8;5;;;;;;;1.02;75.47;97051.666666667;;;;
2024/01/14 22:47:25;;;;;;;9.8;5;;;;;;;1.03;75.67;97031.666666667;;;;
2024/01/14 22:58:25;;;;;;;9.7;5.4;;;;;;;1.03;74.97;97008.333333333;;;;
2024/01/14 23:08:25;;;;;;;9.7;5.4;;;;;;;1.1;74.31;96983.333333333;;;;
2024/01/14 23:19:25;;;;;;;9.7;5.4;;;;;;;1.07;74;96978.333333333;;;;
2024/01/14 23:30:25;;;;;;;6.3;3.8;;;;;;;1.07;73.66;96950;;;;
2024/01/14 23:41:25;;;;;;;6.3;3.8;;;;;;;1.11;73.01;96940;;;;
2024/01/14 23:51:25;;;;;;;6.3;3.8;;;;;;;1.05;73.07;96920;;;;
